Nearby METAR Reports

 

KCOE - Coeur D'alene, Idaho, USA
Distance from station: SSE 4mi, 7km
Updated: Thu, 08-Dec-2022 3:43am PST
Light snow, Mist, Overcast
Light snow, Mist, Overcast
 Wind from varies
Wind: varies 3 mph , 6 km/h
Temperature: 27°F , -3°C
Dew Point: 27°F , -3°C
Humidity: 100%
Barometer: 30.12 inHg , 1020 hPa
Summary: Light snow, Mist
Clouds: Overcast
Visibility: 3 miles , 5 km
Cloud details: Overcast 200 ft
2022/12/08 11:43 KCOE 081143Z AUTO VRB03KT 3SM -SN BR OVC002 M03/M03 A3012 RMK AO2 SNB41 P0000 FZRANO
KSFF - Spokane/Felts, Washington, USA
Distance from station: WSW 24mi, 39km
Updated: Thu, 08-Dec-2022 2:53am PST
Overcast
Overcast
 Wind from calm
Wind: Calm
Temperature: 27°F , -3°C
Dew Point: 23°F , -5°C
Humidity: 86%
Barometer: 30.13 inHg , 1020.3 hPa
Clouds: Overcast
Visibility: 8 miles , 13 km
Cloud details: Overcast 300 ft
2022/12/08 10:53 KSFF 081053Z AUTO 00000KT 8SM OVC003 M03/M05 A3013 RMK AO2 SLP224 T10331050
 
KDEW - Deer Park, Washington, USA
Distance from station: WNW 29mi, 47km
Updated: Thu, 08-Dec-2022 3:27am PST
Freezing fog, Overcast
Freezing fog, Overcast
 Wind from NE
Wind: NE 5 mph , 7 km/h
Temperature: 23°F , -5°C
Wind Chill: 17°F , -8°C
Dew Point: 19°F , -7°C
Humidity: 86%
Barometer: 30.12 inHg , 1020 hPa
Summary: Freezing Fog
Clouds: Overcast
Visibility: 1/2 mile , 0.8 km
Cloud details: Overcast 200 ft
2022/12/08 11:27 KDEW 081127Z AUTO 04004KT 1/2SM FZFG VV002 M05/M07 A3012 RMK AO2 T10501067 $
KSZT - Wall/Sandpoint, Idaho, USA
Distance from station: NNE 35mi, 56km
Updated: Thu, 08-Dec-2022 3:35am PST
Overcast
Overcast
 Wind from calm
Wind: Calm
Temperature: 25°F , -4°C
Dew Point: 23°F , -5°C
Humidity: 93%
Barometer: 30.12 inHg , 1020 hPa
Clouds: Overcast
Visibility: 7 miles , 11 km
Cloud details: Overcast 1400 ft
2022/12/08 11:35 KSZT 081135Z AUTO 00000KT 7SM OVC014 M04/M05 A3012 RMK AO2
 
KGEG - Spokane/Metro, Washington, USA
Distance from station: WSW 35mi, 57km
Updated: Thu, 08-Dec-2022 3:15am PST
Mist, Overcast
Mist, Overcast
 Wind from SSW
Wind: SSW 6 mph , 9 km/h
Temperature: 19°F , -7°C
Wind Chill: 11°F , -12°C
Dew Point: 16°F , -9°C
Humidity: 86%
Barometer: 30.10 inHg , 1019.3 hPa
Summary: Mist
Clouds: Overcast
Visibility: 2 miles , 3 km
Cloud details: Partly cloudy 300 ft
Overcast 4600 ft
2022/12/08 11:15 KGEG 081115Z 21005KT 2SM BR SCT003 OVC046 M07/M09 A3010 RMK AO2 SFC VIS 5 T10671089 $
KSKA - Fairchild Afb, Washington, USA
Distance from station: WSW 40mi, 65km
Updated: Thu, 08-Dec-2022 3:38am PST
Mist, Overcast
Mist, Overcast
 Wind from calm
Wind: Calm
Temperature: 18°F , -8°C
Dew Point: 12°F , -11°C
Humidity: 79%
Barometer: 30.08 inHg , 1018.6 hPa
Summary: Mist
Clouds: Overcast
Visibility: 3 miles , 5 km
Cloud details: Overcast 200 ft
2022/12/08 11:38 KSKA 081138Z 00000KT 3SM BR OVC002 M08/M11 A3008 RMK AO2A VIS 2 1/2 RWY05/23 SLP217 CHINO RWY23 $